sensor_id;sensor_type;location;lat;lon;timestamp;P1;durP1;ratioP1;P2;durP2;ratioP2
48578;SDS011;34357;51.948;6.132;2023-11-18T00:01:23;122.13;;;53.03;;
48578;SDS011;34357;51.948;6.132;2023-11-18T00:03:49;118.32;;;52.67;;
48578;SDS011;34357;51.948;6.132;2023-11-18T00:06:15;123.30;;;52.70;;
48578;SDS011;34357;51.948;6.132;2023-11-18T00:08:41;123.85;;;53.45;;
48578;SDS011;34357;51.948;6.132;2023-11-18T00:11:06;127.28;;;54.47;;
48578;SDS011;34357;51.948;6.132;2023-11-18T00:13:34;117.00;;;52.53;;
48578;SDS011;34357;51.948;6.132;2023-11-18T00:16:00;132.50;;;54.53;;
48578;SDS011;34357;51.948;6.132;2023-11-18T00:18:27;126.97;;;56.13;;
48578;SDS011;34357;51.948;6.132;2023-11-18T00:20:53;120.28;;;55.00;;
48578;SDS011;34357;51.948;6.132;2023-11-18T00:23:22;130.27;;;54.72;;
48578;SDS011;34357;51.948;6.132;2023-11-18T00:25:48;136.23;;;55.42;;
48578;SDS011;34357;51.948;6.132;2023-11-18T00:28:13;137.60;;;56.00;;
48578;SDS011;34357;51.948;6.132;2023-11-18T00:30:39;134.55;;;54.13;;
48578;SDS011;34357;51.948;6.132;2023-11-18T00:33:05;136.50;;;57.30;;
48578;SDS011;34357;51.948;6.132;2023-11-18T00:35:31;132.10;;;54.42;;
48578;SDS011;34357;51.948;6.132;2023-11-18T00:37:59;127.88;;;54.40;;
48578;SDS011;34357;51.948;6.132;2023-11-18T00:40:25;118.32;;;54.97;;
48578;SDS011;34357;51.948;6.132;2023-11-18T00:42:55;124.18;;;54.40;;
48578;SDS011;34357;51.948;6.132;2023-11-18T00:45:21;118.60;;;51.90;;
48578;SDS011;34357;51.948;6.132;2023-11-18T00:47:47;120.13;;;50.15;;
48578;SDS011;34357;51.948;6.132;2023-11-18T00:50:13;122.78;;;54.30;;
48578;SDS011;34357;51.948;6.132;2023-11-18T00:52:39;114.28;;;52.00;;
48578;SDS011;34357;51.948;6.132;2023-11-18T00:55:07;119.18;;;51.22;;
48578;SDS011;34357;51.948;6.132;2023-11-18T00:57:34;122.35;;;53.42;;
48578;SDS011;34357;51.948;6.132;2023-11-18T01:00:01;116.50;;;51.85;;
48578;SDS011;34357;51.948;6.132;2023-11-18T01:02:28;120.35;;;53.90;;
48578;SDS011;34357;51.948;6.132;2023-11-18T01:04:53;128.85;;;54.50;;
48578;SDS011;34357;51.948;6.132;2023-11-18T01:07:19;118.25;;;52.97;;
48578;SDS011;34357;51.948;6.132;2023-11-18T01:09:45;126.50;;;55.22;;
48578;SDS011;34357;51.948;6.132;2023-11-18T01:12:11;126.72;;;55.80;;
48578;SDS011;34357;51.948;6.132;2023-11-18T01:14:38;121.90;;;53.03;;
48578;SDS011;34357;51.948;6.132;2023-11-18T01:17:05;127.82;;;53.35;;
48578;SDS011;34357;51.948;6.132;2023-11-18T01:19:31;119.15;;;53.70;;
48578;SDS011;34357;51.948;6.132;2023-11-18T01:21:58;130.23;;;55.28;;
48578;SDS011;34357;51.948;6.132;2023-11-18T01:24:24;141.20;;;59.00;;
48578;SDS011;34357;51.948;6.132;2023-11-18T01:26:50;124.60;;;55.85;;
48578;SDS011;34357;51.948;6.132;2023-11-18T01:29:16;131.60;;;56.45;;
48578;SDS011;34357;51.948;6.132;2023-11-18T01:31:42;117.75;;;51.42;;
48578;SDS011;34357;51.948;6.132;2023-11-18T01:34:08;109.90;;;48.72;;
48578;SDS011;34357;51.948;6.132;2023-11-18T01:36:35;110.45;;;49.53;;
48578;SDS011;34357;51.948;6.132;2023-11-18T01:39:01;123.70;;;52.67;;
48578;SDS011;34357;51.948;6.132;2023-11-18T01:41:26;114.57;;;51.05;;
48578;SDS011;34357;51.948;6.132;2023-11-18T01:43:57;125.28;;;53.20;;
48578;SDS011;34357;51.948;6.132;2023-11-18T01:46:25;134.60;;;55.72;;
48578;SDS011;34357;51.948;6.132;2023-11-18T01:48:51;141.02;;;58.40;;
48578;SDS011;34357;51.948;6.132;2023-11-18T01:51:17;129.55;;;55.13;;
48578;SDS011;34357;51.948;6.132;2023-11-18T01:53:45;139.63;;;56.30;;
48578;SDS011;34357;51.948;6.132;2023-11-18T01:56:14;135.43;;;56.55;;
48578;SDS011;34357;51.948;6.132;2023-11-18T01:58:40;141.45;;;57.85;;
48578;SDS011;34357;51.948;6.132;2023-11-18T02:01:06;142.80;;;62.20;;
48578;SDS011;34357;51.948;6.132;2023-11-18T02:03:34;132.23;;;55.45;;
48578;SDS011;34357;51.948;6.132;2023-11-18T02:06:00;147.60;;;60.30;;
48578;SDS011;34357;51.948;6.132;2023-11-18T02:08:30;145.93;;;60.75;;
48578;SDS011;34357;51.948;6.132;2023-11-18T02:13:56;161.07;;;63.83;;
48578;SDS011;34357;51.948;6.132;2023-11-18T02:16:28;156.85;;;63.40;;
48578;SDS011;34357;51.948;6.132;2023-11-18T02:18:54;144.95;;;62.85;;
48578;SDS011;34357;51.948;6.132;2023-11-18T02:21:21;151.63;;;62.55;;
48578;SDS011;34357;51.948;6.132;2023-11-18T02:23:48;147.50;;;61.10;;
48578;SDS011;34357;51.948;6.132;2023-11-18T02:26:24;125.32;;;56.70;;
48578;SDS011;34357;51.948;6.132;2023-11-18T02:28:51;152.20;;;62.20;;
48578;SDS011;34357;51.948;6.132;2023-11-18T02:31:30;143.55;;;60.58;;
48578;SDS011;34357;51.948;6.132;2023-11-18T02:34:05;148.57;;;62.60;;
48578;SDS011;34357;51.948;6.132;2023-11-18T02:36:44;150.95;;;66.72;;
48578;SDS011;34357;51.948;6.132;2023-11-18T02:39:16;146.45;;;64.22;;
48578;SDS011;34357;51.948;6.132;2023-11-18T02:41:47;154.10;;;63.38;;
48578;SDS011;34357;51.948;6.132;2023-11-18T02:44:17;152.20;;;65.03;;
48578;SDS011;34357;51.948;6.132;2023-11-18T02:46:45;150.02;;;64.70;;
48578;SDS011;34357;51.948;6.132;2023-11-18T02:49:11;138.40;;;63.42;;
48578;SDS011;34357;51.948;6.132;2023-11-18T02:51:38;152.95;;;65.95;;
48578;SDS011;34357;51.948;6.132;2023-11-18T02:54:07;142.55;;;62.33;;
48578;SDS011;34357;51.948;6.132;2023-11-18T02:56:36;155.48;;;62.45;;
48578;SDS011;34357;51.948;6.132;2023-11-18T02:59:02;147.48;;;63.30;;
48578;SDS011;34357;51.948;6.132;2023-11-18T03:01:33;148.80;;;65.70;;
48578;SDS011;34357;51.948;6.132;2023-11-18T03:03:59;155.40;;;66.95;;
48578;SDS011;34357;51.948;6.132;2023-11-18T03:06:25;153.27;;;65.75;;
48578;SDS011;34357;51.948;6.132;2023-11-18T03:08:51;154.77;;;67.40;;
48578;SDS011;34357;51.948;6.132;2023-11-18T03:11:21;145.35;;;63.58;;
48578;SDS011;34357;51.948;6.132;2023-11-18T03:14:04;150.32;;;63.95;;
48578;SDS011;34357;51.948;6.132;2023-11-18T03:16:35;143.90;;;62.97;;
48578;SDS011;34357;51.948;6.132;2023-11-18T03:19:02;153.35;;;62.55;;
48578;SDS011;34357;51.948;6.132;2023-11-18T03:21:30;146.20;;;61.33;;
48578;SDS011;34357;51.948;6.132;2023-11-18T03:23:55;146.50;;;61.42;;
48578;SDS011;34357;51.948;6.132;2023-11-18T03:26:22;146.32;;;61.17;;
48578;SDS011;34357;51.948;6.132;2023-11-18T03:28:49;142.50;;;58.58;;
48578;SDS011;34357;51.948;6.132;2023-11-18T03:31:14;140.18;;;58.42;;
48578;SDS011;34357;51.948;6.132;2023-11-18T03:33:41;147.85;;;59.92;;
48578;SDS011;34357;51.948;6.132;2023-11-18T03:36:07;140.23;;;57.95;;
48578;SDS011;34357;51.948;6.132;2023-11-18T03:38:33;134.50;;;57.80;;
48578;SDS011;34357;51.948;6.132;2023-11-18T03:41:00;136.40;;;58.17;;
48578;SDS011;34357;51.948;6.132;2023-11-18T03:43:25;138.43;;;58.75;;
48578;SDS011;34357;51.948;6.132;2023-11-18T03:45:52;136.40;;;58.20;;
48578;SDS011;34357;51.948;6.132;2023-11-18T03:48:22;141.48;;;57.65;;
48578;SDS011;34357;51.948;6.132;2023-11-18T03:50:48;147.82;;;57.20;;
48578;SDS011;34357;51.948;6.132;2023-11-18T03:53:14;152.25;;;59.25;;
48578;SDS011;34357;51.948;6.132;2023-11-18T03:55:40;140.48;;;59.53;;
48578;SDS011;34357;51.948;6.132;2023-11-18T03:58:05;142.43;;;59.95;;
48578;SDS011;34357;51.948;6.132;2023-11-18T04:00:34;145.00;;;59.55;;
48578;SDS011;34357;51.948;6.132;2023-11-18T04:03:00;142.57;;;59.40;;
48578;SDS011;34357;51.948;6.132;2023-11-18T04:05:25;140.40;;;58.92;;
48578;SDS011;34357;51.948;6.132;2023-11-18T04:07:51;142.73;;;59.67;;
48578;SDS011;34357;51.948;6.132;2023-11-18T04:10:17;136.15;;;58.35;;
48578;SDS011;34357;51.948;6.132;2023-11-18T04:12:44;140.50;;;59.08;;
48578;SDS011;34357;51.948;6.132;2023-11-18T04:15:12;153.95;;;63.20;;
48578;SDS011;34357;51.948;6.132;2023-11-18T04:17:38;149.25;;;59.20;;
48578;SDS011;34357;51.948;6.132;2023-11-18T04:20:04;140.13;;;58.42;;
48578;SDS011;34357;51.948;6.132;2023-11-18T04:22:37;146.07;;;60.80;;
48578;SDS011;34357;51.948;6.132;2023-11-18T04:25:04;154.05;;;60.53;;
48578;SDS011;34357;51.948;6.132;2023-11-18T04:27:31;153.68;;;63.90;;
48578;SDS011;34357;51.948;6.132;2023-11-18T04:29:57;160.88;;;64.25;;
48578;SDS011;34357;51.948;6.132;2023-11-18T04:32:23;166.40;;;66.15;;
48578;SDS011;34357;51.948;6.132;2023-11-18T04:34:49;169.10;;;65.45;;
48578;SDS011;34357;51.948;6.132;2023-11-18T04:37:16;160.18;;;63.15;;
48578;SDS011;34357;51.948;6.132;2023-11-18T04:39:42;168.43;;;67.40;;
48578;SDS011;34357;51.948;6.132;2023-11-18T04:42:08;174.65;;;66.63;;
48578;SDS011;34357;51.948;6.132;2023-11-18T04:44:34;167.40;;;66.38;;
48578;SDS011;34357;51.948;6.132;2023-11-18T04:47:00;156.32;;;64.38;;
48578;SDS011;34357;51.948;6.132;2023-11-18T04:49:26;159.15;;;62.75;;
48578;SDS011;34357;51.948;6.132;2023-11-18T04:51:52;158.75;;;62.75;;
48578;SDS011;34357;51.948;6.132;2023-11-18T04:54:18;153.40;;;63.22;;
48578;SDS011;34357;51.948;6.132;2023-11-18T04:56:44;149.45;;;60.55;;
48578;SDS011;34357;51.948;6.132;2023-11-18T04:59:11;151.45;;;61.92;;
48578;SDS011;34357;51.948;6.132;2023-11-18T05:01:36;149.05;;;65.47;;
48578;SDS011;34357;51.948;6.132;2023-11-18T05:04:03;148.23;;;62.55;;
48578;SDS011;34357;51.948;6.132;2023-11-18T05:06:31;142.52;;;62.33;;
48578;SDS011;34357;51.948;6.132;2023-11-18T05:08:56;143.20;;;63.45;;
48578;SDS011;34357;51.948;6.132;2023-11-18T05:11:22;132.35;;;61.17;;
48578;SDS011;34357;51.948;6.132;2023-11-18T05:13:48;135.43;;;61.17;;
48578;SDS011;34357;51.948;6.132;2023-11-18T05:16:14;142.73;;;60.33;;
48578;SDS011;34357;51.948;6.132;2023-11-18T05:18:40;134.13;;;60.88;;
48578;SDS011;34357;51.948;6.132;2023-11-18T05:21:06;139.02;;;59.63;;
48578;SDS011;34357;51.948;6.132;2023-11-18T05:23:33;136.35;;;62.75;;
48578;SDS011;34357;51.948;6.132;2023-11-18T05:26:00;137.38;;;61.60;;
48578;SDS011;34357;51.948;6.132;2023-11-18T05:28:27;135.40;;;61.42;;
48578;SDS011;34357;51.948;6.132;2023-11-18T05:30:52;134.02;;;59.03;;
48578;SDS011;34357;51.948;6.132;2023-11-18T05:33:23;129.57;;;59.27;;
48578;SDS011;34357;51.948;6.132;2023-11-18T05:35:48;131.38;;;59.53;;
48578;SDS011;34357;51.948;6.132;2023-11-18T05:38:18;122.78;;;57.85;;
48578;SDS011;34357;51.948;6.132;2023-11-18T05:40:49;118.03;;;56.40;;
48578;SDS011;34357;51.948;6.132;2023-11-18T05:43:28;125.05;;;57.05;;
48578;SDS011;34357;51.948;6.132;2023-11-18T05:46:01;124.53;;;56.55;;
48578;SDS011;34357;51.948;6.132;2023-11-18T05:48:42;120.18;;;55.05;;
48578;SDS011;34357;51.948;6.132;2023-11-18T05:51:08;118.97;;;56.08;;
48578;SDS011;34357;51.948;6.132;2023-11-18T05:53:34;114.38;;;53.17;;
48578;SDS011;34357;51.948;6.132;2023-11-18T05:56:01;115.57;;;52.85;;
48578;SDS011;34357;51.948;6.132;2023-11-18T05:58:28;113.28;;;52.17;;
48578;SDS011;34357;51.948;6.132;2023-11-18T06:00:54;110.18;;;53.95;;
48578;SDS011;34357;51.948;6.132;2023-11-18T06:03:20;114.70;;;54.08;;
48578;SDS011;34357;51.948;6.132;2023-11-18T06:05:45;105.95;;;51.83;;
48578;SDS011;34357;51.948;6.132;2023-11-18T06:08:12;114.65;;;51.85;;
48578;SDS011;34357;51.948;6.132;2023-11-18T06:10:38;100.57;;;50.70;;
48578;SDS011;34357;51.948;6.132;2023-11-18T06:13:03;101.05;;;49.85;;
48578;SDS011;34357;51.948;6.132;2023-11-18T06:15:30;107.70;;;50.70;;
48578;SDS011;34357;51.948;6.132;2023-11-18T06:17:55;100.03;;;49.42;;
48578;SDS011;34357;51.948;6.132;2023-11-18T06:20:21;98.15;;;48.53;;
48578;SDS011;34357;51.948;6.132;2023-11-18T06:22:49;99.03;;;47.92;;
48578;SDS011;34357;51.948;6.132;2023-11-18T06:25:14;100.78;;;49.00;;
48578;SDS011;34357;51.948;6.132;2023-11-18T06:27:44;100.47;;;48.42;;
48578;SDS011;34357;51.948;6.132;2023-11-18T06:30:11;99.97;;;48.55;;
48578;SDS011;34357;51.948;6.132;2023-11-18T06:32:40;98.32;;;47.70;;
48578;SDS011;34357;51.948;6.132;2023-11-18T06:35:07;95.22;;;48.33;;
48578;SDS011;34357;51.948;6.132;2023-11-18T06:37:33;99.60;;;47.70;;
48578;SDS011;34357;51.948;6.132;2023-11-18T06:39:59;96.15;;;47.53;;
48578;SDS011;34357;51.948;6.132;2023-11-18T06:42:24;96.55;;;48.30;;
48578;SDS011;34357;51.948;6.132;2023-11-18T06:44:50;85.90;;;44.13;;
48578;SDS011;34357;51.948;6.132;2023-11-18T06:47:16;93.70;;;45.55;;
48578;SDS011;34357;51.948;6.132;2023-11-18T06:49:44;95.75;;;45.95;;
48578;SDS011;34357;51.948;6.132;2023-11-18T06:52:12;85.30;;;44.50;;
48578;SDS011;34357;51.948;6.132;2023-11-18T06:54:42;85.65;;;43.47;;
48578;SDS011;34357;51.948;6.132;2023-11-18T06:57:07;86.43;;;44.47;;
48578;SDS011;34357;51.948;6.132;2023-11-18T06:59:33;91.97;;;45.72;;
48578;SDS011;34357;51.948;6.132;2023-11-18T07:01:59;88.15;;;45.50;;
48578;SDS011;34357;51.948;6.132;2023-11-18T07:04:25;98.72;;;44.58;;
48578;SDS011;34357;51.948;6.132;2023-11-18T07:06:51;89.18;;;44.67;;
48578;SDS011;34357;51.948;6.132;2023-11-18T07:09:16;92.13;;;44.92;;
48578;SDS011;34357;51.948;6.132;2023-11-18T07:11:45;95.72;;;45.95;;
48578;SDS011;34357;51.948;6.132;2023-11-18T07:14:12;92.05;;;45.63;;
48578;SDS011;34357;51.948;6.132;2023-11-18T07:16:40;99.03;;;45.95;;
48578;SDS011;34357;51.948;6.132;2023-11-18T07:19:06;95.97;;;46.30;;
48578;SDS011;34357;51.948;6.132;2023-11-18T07:21:33;95.78;;;46.25;;
48578;SDS011;34357;51.948;6.132;2023-11-18T07:23:59;96.07;;;46.50;;
48578;SDS011;34357;51.948;6.132;2023-11-18T07:26:26;109.57;;;47.88;;
48578;SDS011;34357;51.948;6.132;2023-11-18T07:28:51;102.22;;;46.63;;
48578;SDS011;34357;51.948;6.132;2023-11-18T07:31:17;102.57;;;45.72;;
48578;SDS011;34357;51.948;6.132;2023-11-18T07:33:46;104.55;;;45.70;;
48578;SDS011;34357;51.948;6.132;2023-11-18T07:36:18;102.22;;;46.50;;
48578;SDS011;34357;51.948;6.132;2023-11-18T07:38:47;97.65;;;44.80;;
48578;SDS011;34357;51.948;6.132;2023-11-18T07:41:13;97.15;;;42.88;;
48578;SDS011;34357;51.948;6.132;2023-11-18T07:43:55;94.82;;;43.28;;
48578;SDS011;34357;51.948;6.132;2023-11-18T07:46:23;91.10;;;43.30;;
48578;SDS011;34357;51.948;6.132;2023-11-18T07:48:53;97.78;;;42.80;;
48578;SDS011;34357;51.948;6.132;2023-11-18T07:51:20;93.50;;;41.70;;
48578;SDS011;34357;51.948;6.132;2023-11-18T07:53:50;93.47;;;41.45;;
48578;SDS011;34357;51.948;6.132;2023-11-18T07:56:16;93.22;;;40.88;;
48578;SDS011;34357;51.948;6.132;2023-11-18T07:58:44;91.80;;;41.17;;
48578;SDS011;34357;51.948;6.132;2023-11-18T08:01:12;92.07;;;41.78;;
48578;SDS011;34357;51.948;6.132;2023-11-18T08:03:38;88.45;;;40.13;;
48578;SDS011;34357;51.948;6.132;2023-11-18T08:06:06;90.82;;;39.83;;
48578;SDS011;34357;51.948;6.132;2023-11-18T08:08:32;89.88;;;40.15;;
48578;SDS011;34357;51.948;6.132;2023-11-18T08:10:59;98.80;;;42.00;;
48578;SDS011;34357;51.948;6.132;2023-11-18T08:13:25;90.43;;;40.00;;
48578;SDS011;34357;51.948;6.132;2023-11-18T08:15:53;92.63;;;40.85;;
48578;SDS011;34357;51.948;6.132;2023-11-18T08:18:19;92.75;;;41.17;;
48578;SDS011;34357;51.948;6.132;2023-11-18T08:20:46;96.38;;;40.78;;
48578;SDS011;34357;51.948;6.132;2023-11-18T08:23:12;100.78;;;42.67;;
48578;SDS011;34357;51.948;6.132;2023-11-18T08:25:38;95.57;;;41.50;;
48578;SDS011;34357;51.948;6.132;2023-11-18T08:28:05;94.53;;;40.67;;
48578;SDS011;34357;51.948;6.132;2023-11-18T08:30:32;96.20;;;41.03;;
48578;SDS011;34357;51.948;6.132;2023-11-18T08:33:01;87.43;;;39.38;;
48578;SDS011;34357;51.948;6.132;2023-11-18T08:35:29;97.97;;;41.00;;
48578;SDS011;34357;51.948;6.132;2023-11-18T08:37:56;91.32;;;40.63;;
48578;SDS011;34357;51.948;6.132;2023-11-18T08:40:22;97.18;;;40.95;;
48578;SDS011;34357;51.948;6.132;2023-11-18T08:42:48;94.72;;;40.97;;
48578;SDS011;34357;51.948;6.132;2023-11-18T08:45:18;87.32;;;38.85;;
48578;SDS011;34357;51.948;6.132;2023-11-18T08:47:44;87.35;;;39.85;;
48578;SDS011;34357;51.948;6.132;2023-11-18T08:50:14;86.32;;;39.40;;
48578;SDS011;34357;51.948;6.132;2023-11-18T08:52:42;84.35;;;37.15;;
48578;SDS011;34357;51.948;6.132;2023-11-18T08:55:09;80.75;;;35.22;;
48578;SDS011;34357;51.948;6.132;2023-11-18T08:57:46;84.93;;;36.80;;
48578;SDS011;34357;51.948;6.132;2023-11-18T09:00:29;76.80;;;33.88;;
48578;SDS011;34357;51.948;6.132;2023-11-18T09:03:14;67.15;;;33.30;;
48578;SDS011;34357;51.948;6.132;2023-11-18T09:06:05;72.13;;;31.58;;
48578;SDS011;34357;51.948;6.132;2023-11-18T09:08:42;72.40;;;32.80;;
48578;SDS011;34357;51.948;6.132;2023-11-18T09:11:18;63.40;;;30.30;;
48578;SDS011;34357;51.948;6.132;2023-11-18T09:13:45;62.03;;;29.25;;
48578;SDS011;34357;51.948;6.132;2023-11-18T09:16:19;63.47;;;29.58;;
48578;SDS011;34357;51.948;6.132;2023-11-18T09:18:50;57.47;;;28.40;;
48578;SDS011;34357;51.948;6.132;2023-11-18T09:21:16;52.75;;;27.13;;
48578;SDS011;34357;51.948;6.132;2023-11-18T09:23:50;53.63;;;26.90;;
48578;SDS011;34357;51.948;6.132;2023-11-18T09:26:17;56.78;;;26.55;;
48578;SDS011;34357;51.948;6.132;2023-11-18T09:28:43;50.83;;;24.15;;
48578;SDS011;34357;51.948;6.132;2023-11-18T09:31:11;46.20;;;24.38;;
48578;SDS011;34357;51.948;6.132;2023-11-18T09:33:38;52.53;;;23.90;;
48578;SDS011;34357;51.948;6.132;2023-11-18T09:36:10;47.60;;;23.50;;
48578;SDS011;34357;51.948;6.132;2023-11-18T09:38:40;51.03;;;23.90;;
48578;SDS011;34357;51.948;6.132;2023-11-18T09:41:09;42.08;;;21.42;;
48578;SDS011;34357;51.948;6.132;2023-11-18T09:43:39;37.67;;;21.38;;
48578;SDS011;34357;51.948;6.132;2023-11-18T09:46:13;41.25;;;21.98;;
48578;SDS011;34357;51.948;6.132;2023-11-18T09:51:26;44.55;;;20.80;;
48578;SDS011;34357;51.948;6.132;2023-11-18T09:53:55;39.38;;;20.88;;
48578;SDS011;34357;51.948;6.132;2023-11-18T09:56:41;39.35;;;18.90;;
48578;SDS011;34357;51.948;6.132;2023-11-18T10:02:08;35.63;;;17.75;;
48578;SDS011;34357;51.948;6.132;2023-11-18T10:04:36;36.08;;;17.75;;
48578;SDS011;34357;51.948;6.132;2023-11-18T10:07:05;34.97;;;17.83;;
48578;SDS011;34357;51.948;6.132;2023-11-18T10:09:32;35.03;;;18.30;;
48578;SDS011;34357;51.948;6.132;2023-11-18T10:12:05;31.40;;;17.60;;
48578;SDS011;34357;51.948;6.132;2023-11-18T10:14:36;34.75;;;19.52;;
48578;SDS011;34357;51.948;6.132;2023-11-18T10:17:08;37.40;;;18.30;;
48578;SDS011;34357;51.948;6.132;2023-11-18T10:19:53;34.00;;;18.00;;
48578;SDS011;34357;51.948;6.132;2023-11-18T10:22:22;38.67;;;18.77;;
48578;SDS011;34357;51.948;6.132;2023-11-18T10:24:49;32.47;;;17.70;;
48578;SDS011;34357;51.948;6.132;2023-11-18T10:27:28;39.20;;;17.98;;
48578;SDS011;34357;51.948;6.132;2023-11-18T10:29:55;29.88;;;18.00;;
48578;SDS011;34357;51.948;6.132;2023-11-18T10:32:21;31.45;;;17.05;;
48578;SDS011;34357;51.948;6.132;2023-11-18T10:34:53;32.08;;;16.63;;
48578;SDS011;34357;51.948;6.132;2023-11-18T10:37:22;33.90;;;18.45;;
48578;SDS011;34357;51.948;6.132;2023-11-18T10:39:49;36.83;;;18.52;;
48578;SDS011;34357;51.948;6.132;2023-11-18T10:42:16;35.08;;;18.48;;
48578;SDS011;34357;51.948;6.132;2023-11-18T10:44:58;31.95;;;17.05;;
48578;SDS011;34357;51.948;6.132;2023-11-18T10:47:36;38.22;;;19.63;;
48578;SDS011;34357;51.948;6.132;2023-11-18T10:50:04;39.45;;;19.73;;
48578;SDS011;34357;51.948;6.132;2023-11-18T10:52:30;40.45;;;20.67;;
48578;SDS011;34357;51.948;6.132;2023-11-18T10:55:00;43.55;;;22.30;;
48578;SDS011;34357;51.948;6.132;2023-11-18T10:57:32;44.08;;;21.83;;
48578;SDS011;34357;51.948;6.132;2023-11-18T11:00:04;44.42;;;22.52;;
48578;SDS011;34357;51.948;6.132;2023-11-18T11:02:44;46.95;;;24.48;;
48578;SDS011;34357;51.948;6.132;2023-11-18T11:05:12;44.35;;;23.27;;
48578;SDS011;34357;51.948;6.132;2023-11-18T11:07:52;52.13;;;23.95;;
48578;SDS011;34357;51.948;6.132;2023-11-18T11:10:19;48.92;;;24.40;;
48578;SDS011;34357;51.948;6.132;2023-11-18T11:12:50;46.50;;;23.10;;
48578;SDS011;34357;51.948;6.132;2023-11-18T11:15:18;45.50;;;24.42;;
48578;SDS011;34357;51.948;6.132;2023-11-18T11:17:54;44.33;;;22.30;;
48578;SDS011;34357;51.948;6.132;2023-11-18T11:20:37;52.30;;;24.13;;
48578;SDS011;34357;51.948;6.132;2023-11-18T11:29:30;49.28;;;24.40;;
48578;SDS011;34357;51.948;6.132;2023-11-18T11:32:44;41.22;;;21.90;;
48578;SDS011;34357;51.948;6.132;2023-11-18T11:37:33;45.63;;;22.00;;
48578;SDS011;34357;51.948;6.132;2023-11-18T11:39:59;45.53;;;21.67;;
48578;SDS011;34357;51.948;6.132;2023-11-18T11:42:29;54.95;;;22.40;;
48578;SDS011;34357;51.948;6.132;2023-11-18T11:44:57;46.83;;;22.30;;
48578;SDS011;34357;51.948;6.132;2023-11-18T11:47:24;46.25;;;23.20;;
48578;SDS011;34357;51.948;6.132;2023-11-18T11:52:35;43.35;;;22.30;;
48578;SDS011;34357;51.948;6.132;2023-11-18T11:55:38;46.92;;;22.52;;
48578;SDS011;34357;51.948;6.132;2023-11-18T11:58:04;53.63;;;23.40;;
48578;SDS011;34357;51.948;6.132;2023-11-18T12:00:49;48.40;;;22.45;;
48578;SDS011;34357;51.948;6.132;2023-11-18T12:03:15;44.55;;;21.80;;
48578;SDS011;34357;51.948;6.132;2023-11-18T12:05:44;48.17;;;21.73;;
48578;SDS011;34357;51.948;6.132;2023-11-18T12:08:11;42.80;;;22.40;;
48578;SDS011;34357;51.948;6.132;2023-11-18T12:10:38;42.05;;;20.15;;
48578;SDS011;34357;51.948;6.132;2023-11-18T12:13:09;42.40;;;20.75;;
48578;SDS011;34357;51.948;6.132;2023-11-18T12:15:51;43.58;;;20.35;;
48578;SDS011;34357;51.948;6.132;2023-11-18T12:18:41;34.95;;;18.67;;
48578;SDS011;34357;51.948;6.132;2023-11-18T12:21:09;39.08;;;19.08;;
48578;SDS011;34357;51.948;6.132;2023-11-18T12:24:14;44.10;;;20.15;;
48578;SDS011;34357;51.948;6.132;2023-11-18T12:26:43;45.25;;;19.67;;
48578;SDS011;34357;51.948;6.132;2023-11-18T12:29:32;44.45;;;20.63;;
48578;SDS011;34357;51.948;6.132;2023-11-18T12:31:59;38.78;;;19.08;;
48578;SDS011;34357;51.948;6.132;2023-11-18T12:34:48;37.45;;;18.00;;
48578;SDS011;34357;51.948;6.132;2023-11-18T12:40:53;32.17;;;17.50;;
48578;SDS011;34357;51.948;6.132;2023-11-18T12:46:08;37.35;;;17.95;;
48578;SDS011;34357;51.948;6.132;2023-11-18T12:48:56;61.53;;;30.30;;
48578;SDS011;34357;51.948;6.132;2023-11-18T12:51:25;128.93;;;60.33;;
48578;SDS011;34357;51.948;6.132;2023-11-18T12:53:51;32.35;;;16.13;;
48578;SDS011;34357;51.948;6.132;2023-11-18T12:56:21;34.53;;;15.88;;
48578;SDS011;34357;51.948;6.132;2023-11-18T12:58:50;31.00;;;15.27;;
48578;SDS011;34357;51.948;6.132;2023-11-18T13:01:16;26.25;;;13.65;;
48578;SDS011;34357;51.948;6.132;2023-11-18T13:03:42;28.58;;;14.23;;
48578;SDS011;34357;51.948;6.132;2023-11-18T13:06:09;22.17;;;12.07;;
48578;SDS011;34357;51.948;6.132;2023-11-18T13:08:37;22.15;;;11.90;;
48578;SDS011;34357;51.948;6.132;2023-11-18T13:11:03;24.13;;;11.95;;
48578;SDS011;34357;51.948;6.132;2023-11-18T13:13:33;20.73;;;11.27;;
48578;SDS011;34357;51.948;6.132;2023-11-18T13:16:01;22.35;;;11.45;;
48578;SDS011;34357;51.948;6.132;2023-11-18T13:18:27;23.48;;;11.85;;
48578;SDS011;34357;51.948;6.132;2023-11-18T13:20:56;24.95;;;11.07;;
48578;SDS011;34357;51.948;6.132;2023-11-18T13:23:26;21.48;;;10.45;;
48578;SDS011;34357;51.948;6.132;2023-11-18T13:25:55;20.30;;;10.65;;
48578;SDS011;34357;51.948;6.132;2023-11-18T13:28:25;28.42;;;11.52;;
48578;SDS011;34357;51.948;6.132;2023-11-18T13:30:51;22.17;;;10.63;;
48578;SDS011;34357;51.948;6.132;2023-11-18T13:33:17;25.10;;;9.80;;
48578;SDS011;34357;51.948;6.132;2023-11-18T13:35:43;19.42;;;9.50;;
48578;SDS011;34357;51.948;6.132;2023-11-18T13:38:12;19.85;;;9.15;;
48578;SDS011;34357;51.948;6.132;2023-11-18T13:40:45;19.33;;;9.07;;
48578;SDS011;34357;51.948;6.132;2023-11-18T13:43:12;20.30;;;9.43;;
48578;SDS011;34357;51.948;6.132;2023-11-18T13:45:37;24.95;;;10.25;;
48578;SDS011;34357;51.948;6.132;2023-11-18T13:48:05;19.13;;;9.80;;
48578;SDS011;34357;51.948;6.132;2023-11-18T13:50:33;25.05;;;10.70;;
48578;SDS011;34357;51.948;6.132;2023-11-18T13:55:28;18.85;;;11.23;;
48578;SDS011;34357;51.948;6.132;2023-11-18T13:57:57;26.60;;;11.65;;
48578;SDS011;34357;51.948;6.132;2023-11-18T14:00:26;18.90;;;10.20;;
48578;SDS011;34357;51.948;6.132;2023-11-18T14:02:54;25.08;;;10.75;;
48578;SDS011;34357;51.948;6.132;2023-11-18T14:05:21;18.85;;;10.98;;
48578;SDS011;34357;51.948;6.132;2023-11-18T14:07:49;21.60;;;11.10;;
48578;SDS011;34357;51.948;6.132;2023-11-18T14:10:17;19.38;;;11.05;;
48578;SDS011;34357;51.948;6.132;2023-11-18T14:13:03;21.25;;;10.77;;
48578;SDS011;34357;51.948;6.132;2023-11-18T14:15:37;18.35;;;9.38;;
48578;SDS011;34357;51.948;6.132;2023-11-18T14:18:04;16.20;;;9.15;;
48578;SDS011;34357;51.948;6.132;2023-11-18T14:20:32;14.60;;;8.68;;
48578;SDS011;34357;51.948;6.132;2023-11-18T14:23:00;16.23;;;9.15;;
48578;SDS011;34357;51.948;6.132;2023-11-18T14:25:29;22.77;;;9.38;;
48578;SDS011;34357;51.948;6.132;2023-11-18T14:27:55;16.85;;;9.77;;
48578;SDS011;34357;51.948;6.132;2023-11-18T14:30:22;21.45;;;10.32;;
48578;SDS011;34357;51.948;6.132;2023-11-18T14:32:50;14.32;;;8.07;;
48578;SDS011;34357;51.948;6.132;2023-11-18T14:35:19;14.98;;;9.00;;
48578;SDS011;34357;51.948;6.132;2023-11-18T14:37:45;14.88;;;9.20;;
48578;SDS011;34357;51.948;6.132;2023-11-18T14:40:15;17.23;;;9.43;;
48578;SDS011;34357;51.948;6.132;2023-11-18T14:42:47;13.75;;;8.90;;
48578;SDS011;34357;51.948;6.132;2023-11-18T14:45:13;14.68;;;9.20;;
48578;SDS011;34357;51.948;6.132;2023-11-18T14:47:40;16.17;;;9.18;;
48578;SDS011;34357;51.948;6.132;2023-11-18T14:50:07;21.50;;;9.80;;
48578;SDS011;34357;51.948;6.132;2023-11-18T14:52:43;15.98;;;8.88;;
48578;SDS011;34357;51.948;6.132;2023-11-18T14:55:10;12.35;;;9.32;;